Track Кузьминых Дарья

Time Latitude Longitude Accuracy (66% radius in meters) Altitude (meters) Speed (km/hour) Bearing (degrees) Battery (%) GPS flag
08:29:49 60.370944 29.556291 12 80 0 7.551682472229 77 1 delete
08:29:45 60.370950 29.556298 6 74 0 7.551682472229 77 1 delete
08:29:36 60.370967 29.556289 6 81 0 7.551682472229 77 1 delete
08:29:23 60.370963 29.556280 6 78 0 7.551682472229 77 1 delete
08:29:10 60.370991 29.556315 6 71 0 7.551682472229 77 1 delete
08:29:05 60.370996 29.556318 6 77 0 7.551682472229 77 1 delete
08:28:58 60.370972 29.556253 6 92 0 7.551682472229 77 1 delete
08:28:45 60.370983 29.556293 6 92 0 7.551682472229 77 1 delete
08:28:34 60.370964 29.556239 6 88 0 7.551682472229 77 1 delete
08:28:32 60.370953 29.556231 6 86 0 7.551682472229 77 1 delete
08:28:19 60.370929 29.556179 8 78 0 158.25839233398 77 1 delete
08:28:06 60.370931 29.556185 6 76 0 158.25839233398 77 1 delete
08:28:01 60.370927 29.556185 6 73 0 158.25839233398 77 1 delete
08:27:53 60.370904 29.556140 6 72 0 158.25839233398 77 1 delete
08:27:40 60.370904 29.556149 6 76 0 158.25839233398 77 1 delete
08:27:28 60.370927 29.556050 6 74 0 158.25839233398 77 1 delete
08:27:16 60.370919 29.556095 6 78 0 158.25839233398 82 1 delete
08:27:05 60.370913 29.556189 6 82 0 158.25839233398 82 1 delete
08:27:03 60.370913 29.556205 6 83 0 158.25839233398 82 1 delete
08:26:50 60.370937 29.556355 6 70 0 158.25839233398 82 1 delete
08:26:37 60.370914 29.556286 6 72 0 158.25839233398 82 1 delete
08:26:24 60.370888 29.556186 6 80 0 158.25839233398 82 1 delete
08:26:11 60.370863 29.556237 6 74 0 145.0007019043 82 1 delete
08:26:02 60.370870 29.556247 8 62 0 14.40567779541 82 1 delete
08:25:58 60.370887 29.556244 8 71 0 14.40567779541 82 1 delete
08:25:46 60.370921 29.556266 8 81 0 317.20233154297 82 1 delete
08:25:33 60.370947 29.556237 4 87 0 317.20233154297 82 1 delete
08:25:19 60.370951 29.556252 6 86 0 317.20233154297 82 1 delete
08:25:07 60.370937 29.556229 6 90 0 317.20233154297 82 1 delete
08:24:53 60.370943 29.556300 8 80 0 317.20233154297 82 1 delete
08:24:41 60.370913 29.556227 8 100 0 317.20233154297 82 1 delete
08:24:29 60.370934 29.556244 8 90 0 317.20233154297 82 1 delete
08:24:23 60.370919 29.556229 6 93 0 317.20233154297 82 1 delete
08:24:17 60.370955 29.556217 8 95 0.31896111369133 317.20233154297 82 1 delete
08:24:11 60.370948 29.556153 12 103 0 213.6128692627 82 1 delete
08:24:04 60.370936 29.556141 12 109 0 213.6128692627 82 1 delete
08:23:51 60.370905 29.556121 8 75 0 213.6128692627 82 1 delete
08:23:39 60.370975 29.556154 6 88 0 213.6128692627 82 1 delete
08:23:27 60.370940 29.556164 6 89 0 253.38552856445 82 1 delete
08:23:26 60.370943 29.556174 6 87 0 253.38552856445 82 1 delete
08:23:20 60.370966 29.556259 8 78 0 214.71583557129 82 1 delete
08:23:14 60.370990 29.556390 6 71 0 214.71583557129 82 1 delete
08:23:01 60.370961 29.556365 8 71 0 31.39600944519 82 1 delete
08:23:00 60.370955 29.556360 8 71 0 31.39600944519 82 1 delete
08:22:47 60.370952 29.556271 6 74 0 31.39600944519 82 1 delete
08:22:34 60.370984 29.556207 8 84 0 31.39600944519 82 1 delete
08:22:21 60.370983 29.556172 6 90 0 221.08706665039 82 1 delete
08:22:12 60.371026 29.556170 6 96 0.069939665496349 209.65646362305 82 1 delete
08:22:09 60.371032 29.556156 6 96 0 358.24655151367 82 1 delete
08:21:57 60.371076 29.556171 6 108 0 25.716077804565 82 1 delete